R.l. Enterkin — WDD9628 — position and weather

sailwx.info

Track history (hours):
 
Tides and Currents Weather Stations Pressure Air Temp Water Temp Dewpoint Dewpoint Depression Visibility Wind Speed Wind Dir Waves Ship Positions

R.l. Enterkin

Owner: Great Lakes Dredge & Dock Company, LLC., Oak Brook, IL. More information available from US FCC via Universal Licensing System and Coast Guard Vessel Documentation Center.

Last reported at 2014-Nov-24 17:31 UTC. Time now 2014-Dec-18 18:22 UTC.
Position N 39°34' W 075°34'.
Warning: this ship's position is 24 days out of date.

Length 60 m; draft 2.6 m.

Type: Tug. MMSI: 367314080.

Date/timePositionNaut miles runAvg speedWind from/ knotsBaromVisibWave heightAir tempDewpointWater temp
2014-Nov-24 17:31N 39°34' W 075°34'2 2.4
2014-Nov-24 16:33N 39°33' W 075°32'2 2.1
2014-Nov-24 15:33N 39°31' W 075°33'0 0.0
2014-Nov-24 14:33N 39°31' W 075°33'0 0.0
2014-Nov-24 13:33N 39°31' W 075°33'0 0.0
2014-Nov-24 12:33N 39°31' W 075°33'0 0.0
2014-Nov-24 11:33N 39°31' W 075°33'0 0.0
2014-Nov-24 10:33N 39°31' W 075°33'0 0.0
2014-Nov-24 09:33N 39°31' W 075°33'0 0.0
2014-Nov-24 08:33N 39°31' W 075°33'0 0.0
2014-Nov-24 07:33N 39°31' W 075°33'0 0.0
2014-Nov-24 06:33N 39°31' W 075°33'0 0.0
2014-Nov-24 05:33N 39°31' W 075°33'0 0.0
2014-Nov-24 04:33N 39°31' W 075°33'0 0.1
2014-Nov-24 03:33N 39°31' W 075°33'0 0.1
2014-Nov-24 02:33N 39°31' W 075°33'0 0.0
2014-Nov-24 01:33N 39°31' W 075°33'0 0.0
2014-Nov-24 00:33N 39°31' W 075°33'0 0.0
2014-Nov-23 23:33N 39°31' W 075°33'0 0.0
2014-Nov-23 22:33N 39°31' W 075°33'3 3.3
2014-Nov-23 21:33N 39°34' W 075°34'3 3.2
2014-Nov-23 20:33N 39°31' W 075°33'0 0.2
2014-Nov-23 19:33N 39°31' W 075°33'0 0.1
2014-Nov-23 18:33N 39°31' W 075°33'0 0.0
2014-Nov-23 17:33N 39°31' W 075°33'0 0.3
2014-Nov-23 16:33N 39°31' W 075°33'0 0.0
2014-Nov-23 15:33N 39°31' W 075°33'0 0.2
2014-Nov-23 14:33N 39°31' W 075°33'0 0.2
2014-Nov-23 13:33N 39°30' W 075°33'0 0.1
2014-Nov-23 12:33N 39°30' W 075°33'0 0.1
2014-Nov-23 11:33N 39°30' W 075°33'0 0.0
2014-Nov-23 10:33N 39°30' W 075°33'0 0.0
2014-Nov-23 09:32N 39°30' W 075°33'0 0.0
2014-Nov-23 08:33N 39°30' W 075°33'0 0.0
2014-Nov-23 07:33N 39°30' W 075°33'0 0.0
2014-Nov-23 06:33N 39°30' W 075°33'0 0.0
2014-Nov-23 05:33N 39°30' W 075°33'0 0.0
2014-Nov-23 04:33N 39°30' W 075°33'0 0.0
2014-Nov-23 03:33N 39°30' W 075°33'0 0.0
2014-Nov-23 02:33N 39°30' W 075°33'0 0.0
2014-Nov-23 01:33N 39°30' W 075°33'1 0.8
2014-Nov-23 00:33N 39°31' W 075°33'3 3.1
2014-Nov-22 23:33N 39°34' W 075°34'5 5.2
2014-Nov-22 22:33N 39°33' W 075°41'  
Track history (hours):
 
Tides and Currents Weather Stations Pressure Air Temp Water Temp Dewpoint Dewpoint Depression Visibility Wind Speed Wind Dir Waves Ship Positions

R.l. Enterkin

Owner: Great Lakes Dredge & Dock Company, LLC., Oak Brook, IL. More information available from US FCC via Universal Licensing System and Coast Guard Vessel Documentation Center.

Last reported at 2014-Nov-24 17:31 UTC. Time now 2014-Dec-18 18:22 UTC.
Position N 39°34' W 075°34'.
Warning: this ship's position is 24 days out of date.

Length 60 m; draft 2.6 m.

Type: Tug. MMSI: 367314080.

Date/timePositionNaut miles runAvg speedWind from/ knotsBaromVisibWave heightAir tempDewpointWater temp
2014-Nov-24 17:31N 39°34' W 075°34'2 2.4
2014-Nov-24 16:33N 39°33' W 075°32'2 2.1
2014-Nov-24 15:33N 39°31' W 075°33'0 0.0
2014-Nov-24 14:33N 39°31' W 075°33'0 0.0
2014-Nov-24 13:33N 39°31' W 075°33'0 0.0
2014-Nov-24 12:33N 39°31' W 075°33'0 0.0
2014-Nov-24 11:33N 39°31' W 075°33'0 0.0
2014-Nov-24 10:33N 39°31' W 075°33'0 0.0
2014-Nov-24 09:33N 39°31' W 075°33'0 0.0
2014-Nov-24 08:33N 39°31' W 075°33'0 0.0
2014-Nov-24 07:33N 39°31' W 075°33'0 0.0
2014-Nov-24 06:33N 39°31' W 075°33'0 0.0
2014-Nov-24 05:33N 39°31' W 075°33'0 0.0
2014-Nov-24 04:33N 39°31' W 075°33'0 0.1
2014-Nov-24 03:33N 39°31' W 075°33'0 0.1
2014-Nov-24 02:33N 39°31' W 075°33'0 0.0
2014-Nov-24 01:33N 39°31' W 075°33'0 0.0
2014-Nov-24 00:33N 39°31' W 075°33'0 0.0
2014-Nov-23 23:33N 39°31' W 075°33'0 0.0
2014-Nov-23 22:33N 39°31' W 075°33'3 3.3
2014-Nov-23 21:33N 39°34' W 075°34'3 3.2
2014-Nov-23 20:33N 39°31' W 075°33'0 0.2
2014-Nov-23 19:33N 39°31' W 075°33'0 0.1
2014-Nov-23 18:33N 39°31' W 075°33'0 0.0
2014-Nov-23 17:33N 39°31' W 075°33'0 0.3
2014-Nov-23 16:33N 39°31' W 075°33'0 0.0
2014-Nov-23 15:33N 39°31' W 075°33'0 0.2
2014-Nov-23 14:33N 39°31' W 075°33'0 0.2
2014-Nov-23 13:33N 39°30' W 075°33'0 0.1
2014-Nov-23 12:33N 39°30' W 075°33'0 0.1
2014-Nov-23 11:33N 39°30' W 075°33'0 0.0
2014-Nov-23 10:33N 39°30' W 075°33'0 0.0
2014-Nov-23 09:32N 39°30' W 075°33'0 0.0
2014-Nov-23 08:33N 39°30' W 075°33'0 0.0
2014-Nov-23 07:33N 39°30' W 075°33'0 0.0
2014-Nov-23 06:33N 39°30' W 075°33'0 0.0
2014-Nov-23 05:33N 39°30' W 075°33'0 0.0
2014-Nov-23 04:33N 39°30' W 075°33'0 0.0
2014-Nov-23 03:33N 39°30' W 075°33'0 0.0
2014-Nov-23 02:33N 39°30' W 075°33'0 0.0
2014-Nov-23 01:33N 39°30' W 075°33'1 0.8
2014-Nov-23 00:33N 39°31' W 075°33'3 3.1
2014-Nov-22 23:33N 39°34' W 075°34'5 5.2
2014-Nov-22 22:33N 39°33' W 075°41'  

Dump ship's entire track history